Antlers, OK (74523)

1:07 PM CST on February 12, 2016 (GMT -0600)
Antlers South Shady Pines | | Change Station
CLOSE
Current Station
Personal Weather Station
Location: Antlers, OK
Elevation: 538 ft
Nearby Weather Stations

Elev 538 ft 34.20 °N, 95.62 °W | Updated 11 minutes ago

Clear
Clear
69.8 °F
Feels Like 69.8 °F
N
6.8
Wind Variable Wind from NNE

Today
High -- | Low -- °F
--% Chance of Precip.
Yesterday
High -- | Low -- °F
Precip. -- in
Pressure 30.31 in
Visibility -9999.0 miles
Clouds Clear
Dew Point 38 °F
Humidity 31%
Rainfall 0.00 in
Snow Depth Not available.
7:10 AM 6:02 PM
Waxing Crescent, 23% visible
METAR KAQR 121855Z AUTO 03006KT CLR 18/00 A3031 RMK AO2
Pressure 30.31 in
Visibility -9999.0 miles
Clouds Clear
Dew Point 38 °F
Humidity 31%
Rainfall 0.00 in
Snow Depth Not available.
7:10 AM 6:02 PM
Waxing Crescent, 23% visible
METAR KAQR 121855Z AUTO 03006KT CLR 18/00 A3031 RMK AO2

10-Day Weather Forecast

Almanac

Astronomy

Feb. 12, 2016 Rise Set
Actual Time
Civil Twilight
Nautical Twilight
Astronomical Twilight
Moon
Length of Visible Light
Length of Day
Tomorrow will be .
, % of the Moon is Illuminated

Today's Extremes

State Highs State Lows

Community

WunderPhotos

Upload Photos

1,892,374 photos uploaded!

WunderBlog® & News

Nearby

Air Quality

  Air Quality AQ Index Pollutant
Not available.

Snow Depth

Station Depth Elevation

Earthquake Activity

City Distance Mag. Time & Date
Minimum magnitude displayed is 2.5.

Coastal Water Temperatures

Place Temperature

Stations

Nearby Weather Stations

Station Location Temp. Windchill Dew Point Humidity Wind Precip. Elev Updated Type
                   

Watches & Warnings

There are currently no watches in effect.